createdAt,value
2023-04-18T00:01:52.577Z,20.08
2023-04-18T00:04:20.037Z,18.63
2023-04-18T00:06:49.638Z,20.13
2023-04-18T00:09:16.503Z,20.52
2023-04-18T00:11:43.587Z,21.08
2023-04-18T00:14:10.506Z,20.15
2023-04-18T00:16:38.170Z,19.30
2023-04-18T00:19:05.258Z,19.23
2023-04-18T00:21:32.128Z,19.35
2023-04-18T00:23:58.923Z,20.40
2023-04-18T00:26:27.220Z,20.52
2023-04-18T00:28:53.941Z,19.65
2023-04-18T00:31:20.763Z,18.48
2023-04-18T00:33:47.682Z,18.30
2023-04-18T00:36:14.472Z,18.70
2023-04-18T00:38:41.304Z,18.73
2023-04-18T00:41:08.086Z,19.58
2023-04-18T00:43:35.147Z,19.27
2023-04-18T00:46:01.965Z,18.38
2023-04-18T00:48:30.132Z,18.27
2023-04-18T00:50:57.706Z,17.88
2023-04-18T00:53:24.660Z,18.27
2023-04-18T00:55:51.595Z,17.75
2023-04-18T00:58:18.314Z,18.35
2023-04-18T01:00:45.770Z,16.73
2023-04-18T01:03:14.540Z,17.55
2023-04-18T01:05:41.773Z,16.90
2023-04-18T01:08:08.700Z,15.27
2023-04-18T01:10:36.267Z,15.73
2023-04-18T01:13:21.459Z,15.95
2023-04-18T01:15:50.425Z,15.25
2023-04-18T01:18:18.239Z,14.45
2023-04-18T01:20:54.672Z,14.93
2023-04-18T01:23:21.597Z,14.70
2023-04-18T01:25:51.827Z,15.02
2023-04-18T01:28:22.710Z,13.95
2023-04-18T01:30:49.796Z,13.40
2023-04-18T01:33:16.624Z,13.68
2023-04-18T01:35:43.325Z,13.98
2023-04-18T01:38:10.031Z,14.77
2023-04-18T01:40:36.819Z,13.55
2023-04-18T01:43:03.556Z,12.35
2023-04-18T01:45:30.303Z,12.18
2023-04-18T01:47:57.103Z,11.90
2023-04-18T01:50:24.009Z,12.48
2023-04-18T01:52:51.010Z,11.73
2023-04-18T01:55:17.972Z,11.55
2023-04-18T01:57:44.753Z,11.48
2023-04-18T02:00:12.086Z,11.63
2023-04-18T02:02:38.958Z,9.55
2023-04-18T02:05:06.264Z,10.52
2023-04-18T02:07:32.983Z,10.82
2023-04-18T02:09:59.764Z,9.70
2023-04-18T02:12:26.580Z,9.40
2023-04-18T02:14:53.720Z,10.27
2023-04-18T02:17:21.513Z,9.73
2023-04-18T02:19:48.426Z,9.00
2023-04-18T02:22:15.181Z,9.43
2023-04-18T02:24:41.921Z,8.43
2023-04-18T02:27:09.720Z,9.60
2023-04-18T02:29:36.605Z,9.13
2023-04-18T02:32:03.856Z,8.23
2023-04-18T02:34:32.445Z,8.70
2023-04-18T02:36:59.376Z,8.07
2023-04-18T02:39:26.113Z,8.82
2023-04-18T02:41:52.878Z,9.02
2023-04-18T02:44:20.292Z,9.23
2023-04-18T02:46:47.101Z,8.60
2023-04-18T02:49:14.256Z,8.52
2023-04-18T02:51:41.077Z,8.77
2023-04-18T02:54:07.989Z,8.27
2023-04-18T02:56:39.853Z,7.82
2023-04-18T02:59:07.199Z,8.88
2023-04-18T03:01:34.156Z,8.60
2023-04-18T03:04:01.117Z,8.20
2023-04-18T03:06:27.883Z,8.32
2023-04-18T03:08:55.716Z,8.30
2023-04-18T03:11:22.601Z,8.68
2023-04-18T03:13:49.302Z,9.45
2023-04-18T03:16:16.779Z,7.90
2023-04-18T03:18:43.798Z,7.78
2023-04-18T03:21:11.423Z,7.93
2023-04-18T03:23:38.379Z,9.20
2023-04-18T03:26:08.741Z,8.48
2023-04-18T03:28:35.629Z,8.15
2023-04-18T03:31:02.487Z,7.90
2023-04-18T03:33:29.376Z,8.55
2023-04-18T03:35:56.265Z,8.18
2023-04-18T03:38:23.033Z,7.95
2023-04-18T03:40:49.948Z,8.35
2023-04-18T03:43:16.707Z,6.70
2023-04-18T03:45:44.389Z,8.77
2023-04-18T03:48:11.116Z,8.23
2023-04-18T03:50:37.825Z,8.00
2023-04-18T03:53:04.654Z,7.50
2023-04-18T03:55:31.466Z,8.48
2023-04-18T03:57:59.229Z,8.68
2023-04-18T04:00:26.426Z,7.70
2023-04-18T04:02:53.360Z,7.35
2023-04-18T04:05:20.279Z,8.40
2023-04-18T04:07:47.433Z,8.75
2023-04-18T04:10:14.371Z,8.20
2023-04-18T04:12:41.370Z,7.65
2023-04-18T04:15:08.620Z,8.63
2023-04-18T04:17:35.466Z,7.95
2023-04-18T04:20:02.591Z,7.35
2023-04-18T04:22:29.282Z,9.05
2023-04-18T04:24:57.773Z,7.60
2023-04-18T04:27:25.121Z,9.15
2023-04-18T04:29:52.336Z,8.95
2023-04-18T04:32:20.295Z,8.48
2023-04-18T04:34:47.128Z,9.45
2023-04-18T04:37:19.802Z,9.45
2023-04-18T04:39:46.579Z,9.00
2023-04-18T04:42:13.418Z,9.00
2023-04-18T04:44:41.604Z,8.40
2023-04-18T04:47:08.512Z,9.93
2023-04-18T04:49:35.265Z,9.07
2023-04-18T04:52:02.934Z,9.50
2023-04-18T04:54:30.152Z,9.35
2023-04-18T04:56:56.904Z,9.60
2023-04-18T04:59:23.650Z,9.98
2023-04-18T05:01:50.519Z,10.23
2023-04-18T05:04:17.686Z,9.68
2023-04-18T05:06:45.434Z,8.65
2023-04-18T05:09:12.140Z,9.68
2023-04-18T05:11:38.848Z,9.52
2023-04-18T05:14:05.690Z,9.82
2023-04-18T05:16:32.931Z,9.18
2023-04-18T05:18:59.777Z,9.25
2023-04-18T05:21:28.588Z,8.85
2023-04-18T05:23:56.299Z,9.63
2023-04-18T05:26:23.357Z,9.73
2023-04-18T05:28:50.220Z,10.32
2023-04-18T05:31:17.066Z,8.93
2023-04-18T05:33:43.902Z,9.43
2023-04-18T05:36:10.742Z,9.07
2023-04-18T05:38:37.667Z,9.10
2023-04-18T05:41:05.418Z,9.05
2023-04-18T05:43:32.199Z,8.40
2023-04-18T05:45:58.855Z,8.43
2023-04-18T05:48:25.728Z,9.77
2023-04-18T05:50:52.446Z,9.50
2023-04-18T05:53:19.182Z,8.40
2023-04-18T05:55:48.582Z,9.38
2023-04-18T05:58:15.852Z,8.27
2023-04-18T06:00:43.052Z,7.90
2023-04-18T06:03:11.274Z,9.13
2023-04-18T06:05:38.690Z,7.55
2023-04-18T06:08:05.949Z,9.05
2023-04-18T06:10:33.105Z,7.85
2023-04-18T06:12:59.951Z,8.63
2023-04-18T06:15:26.827Z,8.48
2023-04-18T06:17:53.824Z,8.20
2023-04-18T06:20:20.744Z,9.13
2023-04-18T06:22:47.441Z,8.35
2023-04-18T06:25:14.517Z,7.85
2023-04-18T06:27:41.375Z,8.10
2023-04-18T06:30:08.778Z,8.18
2023-04-18T06:32:35.620Z,8.48
2023-04-18T06:35:02.426Z,7.97
2023-04-18T06:37:29.506Z,9.38
2023-04-18T06:39:56.250Z,8.95
2023-04-18T06:42:23.071Z,9.10
2023-04-18T06:44:50.260Z,9.35
2023-04-18T06:47:17.195Z,8.98
2023-04-18T06:49:43.996Z,9.60
2023-04-18T06:52:10.973Z,13.02
2023-04-18T06:54:37.766Z,10.25
2023-04-18T06:57:04.559Z,9.73
2023-04-18T06:59:31.628Z,9.80
2023-04-18T07:01:58.478Z,10.35
2023-04-18T07:04:25.401Z,10.60
2023-04-18T07:06:52.517Z,10.35
2023-04-18T07:09:19.604Z,10.15
2023-04-18T07:11:46.352Z,10.20
2023-04-18T07:14:13.319Z,10.13
2023-04-18T07:16:40.567Z,10.02
2023-04-18T07:19:07.526Z,10.60
2023-04-18T07:21:34.360Z,10.00
2023-04-18T07:24:01.071Z,11.02
2023-04-18T07:26:27.997Z,10.02
2023-04-18T07:28:54.746Z,10.10
2023-04-18T07:31:21.578Z,10.43
2023-04-18T07:33:48.369Z,10.32
2023-04-18T07:36:15.385Z,9.90
2023-04-18T07:38:42.565Z,11.00
2023-04-18T07:41:09.396Z,10.73
2023-04-18T07:43:36.193Z,10.45
2023-04-18T07:46:03.131Z,10.93
2023-04-18T07:48:29.947Z,9.45
2023-04-18T07:50:56.747Z,10.63
2023-04-18T07:53:23.600Z,9.32
2023-04-18T07:55:50.489Z,10.20
2023-04-18T07:58:17.850Z,9.77
2023-04-18T08:00:44.777Z,10.30
2023-04-18T08:03:12.726Z,9.23
2023-04-18T08:05:41.205Z,9.52
2023-04-18T08:08:10.076Z,9.82
2023-04-18T08:10:37.389Z,9.98
2023-04-18T08:13:04.933Z,9.85
2023-04-18T08:15:32.735Z,9.05
2023-04-18T08:18:00.915Z,9.13
2023-04-18T08:20:28.112Z,9.05
2023-04-18T08:25:24.877Z,9.50
2023-04-18T08:27:51.922Z,9.32
2023-04-18T08:30:18.904Z,10.20
2023-04-18T08:32:45.737Z,9.15
2023-04-18T08:35:12.586Z,9.38
2023-04-18T08:37:39.381Z,9.70
2023-04-18T08:40:07.279Z,9.43
2023-04-18T08:42:35.333Z,9.40
2023-04-18T08:45:02.684Z,9.30
2023-04-18T08:47:30.131Z,8.35
2023-04-18T08:49:58.456Z,9.82
2023-04-18T08:52:27.483Z,9.15
2023-04-18T08:54:54.190Z,7.82
2023-04-18T08:57:26.815Z,7.97
2023-04-18T08:59:54.318Z,9.63
2023-04-18T09:02:26.815Z,8.82
2023-04-18T09:04:55.702Z,8.63
2023-04-18T09:07:29.776Z,9.23
2023-04-18T09:09:58.216Z,8.43
2023-04-18T09:12:27.816Z,8.88
2023-04-18T09:14:57.778Z,8.73
2023-04-18T09:17:35.454Z,8.98
2023-04-18T09:20:05.254Z,9.13
2023-04-18T09:22:54.373Z,8.70
2023-04-18T09:25:35.078Z,8.52
2023-04-18T09:28:02.931Z,8.52
2023-04-18T09:30:33.127Z,8.10
2023-04-18T09:33:01.509Z,8.82
2023-04-18T09:35:28.449Z,8.00
2023-04-18T09:37:55.524Z,8.30
2023-04-18T09:40:22.414Z,8.57
2023-04-18T09:42:51.692Z,7.88
2023-04-18T09:45:18.754Z,7.82
2023-04-18T09:47:45.793Z,7.75
2023-04-18T09:50:12.894Z,7.38
2023-04-18T09:52:42.053Z,8.65
2023-04-18T09:55:15.080Z,7.28
2023-04-18T09:57:45.518Z,7.88
2023-04-18T10:00:24.836Z,7.18
2023-04-18T10:03:08.677Z,7.35
2023-04-18T10:05:38.756Z,6.80
2023-04-18T10:08:07.313Z,6.00
2023-04-18T10:10:34.131Z,6.53
2023-04-18T10:13:02.783Z,6.97
2023-04-18T10:15:31.258Z,6.75
2023-04-18T10:18:05.780Z,7.15
2023-04-18T10:20:34.969Z,6.60
2023-04-18T10:23:31.374Z,6.65
2023-04-18T10:25:59.071Z,11.88
2023-04-18T10:28:27.517Z,12.18
2023-04-18T10:30:56.392Z,9.30
2023-04-18T10:33:32.218Z,8.60
2023-04-18T10:36:17.856Z,8.30
2023-04-18T10:38:50.014Z,6.45
2023-04-18T10:41:22.987Z,6.32
2023-04-18T10:44:14.595Z,7.60
2023-04-18T10:46:48.914Z,7.60
2023-04-18T10:49:25.864Z,6.45
2023-04-18T10:51:55.730Z,6.22
2023-04-18T10:54:28.419Z,6.00
2023-04-18T10:56:57.198Z,6.63
2023-04-18T10:59:25.371Z,7.88
2023-04-18T11:02:07.450Z,7.72
2023-04-18T11:04:34.532Z,7.88
2023-04-18T11:07:01.554Z,8.70
2023-04-18T11:09:28.295Z,6.93
2023-04-18T11:12:12.063Z,6.25
2023-04-18T11:14:47.629Z,6.60
2023-04-18T11:17:20.468Z,6.57
2023-04-18T11:19:48.097Z,6.53
2023-04-18T11:22:15.727Z,7.60
2023-04-18T11:24:42.485Z,7.95
2023-04-18T11:27:11.080Z,6.70
2023-04-18T11:29:38.596Z,5.20
2023-04-18T11:32:09.428Z,5.95
2023-04-18T11:34:36.595Z,6.35
2023-04-18T11:37:07.512Z,5.85
2023-04-18T11:39:43.915Z,5.32
2023-04-18T11:42:11.405Z,4.95
2023-04-18T11:44:39.989Z,4.70
2023-04-18T11:47:23.262Z,5.32
2023-04-18T11:49:57.280Z,4.55
2023-04-18T11:52:24.997Z,4.03
2023-04-18T11:54:51.814Z,4.28
2023-04-18T11:57:24.327Z,4.80
2023-04-18T11:59:52.972Z,4.32
2023-04-18T12:02:21.547Z,4.13
2023-04-18T12:04:53.819Z,3.95
2023-04-18T12:07:34.856Z,3.90
2023-04-18T12:10:02.612Z,4.35
2023-04-18T12:12:29.450Z,4.75
2023-04-18T12:15:05.623Z,8.65
2023-04-18T12:17:32.727Z,5.15
2023-04-18T12:20:10.161Z,4.38
2023-04-18T12:22:49.482Z,4.50
2023-04-18T12:25:26.170Z,4.47
2023-04-18T12:27:58.270Z,3.92
2023-04-18T12:30:30.965Z,4.32
2023-04-18T12:33:04.784Z,4.15
2023-04-18T12:35:32.383Z,4.40
2023-04-18T12:38:01.409Z,4.40
2023-04-18T12:40:29.612Z,4.22
2023-04-18T12:42:56.608Z,5.10
2023-04-18T12:45:24.365Z,3.75
2023-04-18T12:47:53.730Z,4.32
2023-04-18T12:50:23.344Z,4.30
2023-04-18T12:52:53.117Z,4.47
2023-04-18T12:55:21.546Z,4.28
2023-04-18T12:57:51.663Z,3.90
2023-04-18T13:00:18.424Z,4.18
2023-04-18T13:02:45.973Z,4.50
2023-04-18T13:05:14.615Z,4.22
2023-04-18T13:07:42.688Z,4.57
2023-04-18T13:10:11.917Z,4.50
2023-04-18T13:12:40.063Z,3.45
2023-04-18T13:15:08.076Z,4.00
2023-04-18T13:17:36.952Z,2.92
2023-04-18T13:20:06.700Z,2.90
2023-04-18T13:22:33.936Z,3.05
2023-04-18T13:25:00.700Z,2.60
2023-04-18T13:27:27.632Z,2.38
2023-04-18T13:29:55.335Z,2.90
2023-04-18T13:32:22.242Z,2.35
2023-04-18T13:34:49.437Z,2.38
2023-04-18T13:37:16.509Z,3.85
2023-04-18T13:39:43.339Z,3.25
2023-04-18T13:42:10.196Z,3.45
2023-04-18T13:44:37.708Z,4.05
2023-04-18T13:47:05.954Z,4.70
2023-04-18T13:49:34.496Z,4.20
2023-04-18T13:52:01.475Z,4.28
2023-04-18T13:54:30.288Z,3.70
2023-04-18T13:56:58.874Z,3.50
2023-04-18T13:59:26.462Z,3.67
2023-04-18T14:01:54.306Z,3.28
2023-04-18T14:04:22.468Z,3.10
2023-04-18T14:06:50.507Z,4.00
2023-04-18T14:09:17.974Z,4.30
2023-04-18T14:11:45.278Z,4.30
2023-04-18T14:14:12.103Z,4.15
2023-04-18T14:16:38.945Z,3.50
2023-04-18T14:19:05.950Z,3.60
2023-04-18T14:21:32.819Z,3.30
2023-04-18T14:23:59.535Z,3.65
2023-04-18T14:26:26.405Z,3.65
2023-04-18T14:28:53.192Z,2.90
2023-04-18T14:31:20.084Z,3.10
2023-04-18T14:33:46.800Z,3.25
2023-04-18T14:36:15.384Z,3.03
2023-04-18T14:38:42.447Z,2.78
2023-04-18T14:41:09.413Z,2.60
2023-04-18T14:43:36.651Z,2.78
2023-04-18T14:46:03.448Z,2.72
2023-04-18T14:48:30.219Z,2.58
2023-04-18T14:51:02.495Z,3.20
2023-04-18T14:53:29.476Z,2.33
2023-04-18T14:55:56.328Z,2.65
2023-04-18T14:58:23.182Z,2.25
2023-04-18T15:00:51.306Z,2.38
2023-04-18T15:03:18.463Z,2.50
2023-04-18T15:05:48.684Z,2.50
2023-04-18T15:08:16.150Z,2.72
2023-04-18T15:10:43.064Z,2.67
2023-04-18T15:13:11.028Z,3.53
2023-04-18T15:15:39.713Z,3.08
2023-04-18T15:18:08.422Z,3.22
2023-04-18T15:20:39.547Z,3.00
2023-04-18T15:23:07.035Z,3.55
2023-04-18T15:25:35.688Z,3.30
2023-04-18T15:28:02.730Z,3.70
2023-04-18T15:30:29.774Z,3.83
2023-04-18T15:32:57.199Z,4.72
2023-04-18T15:35:24.439Z,3.75
2023-04-18T15:37:51.630Z,3.83
2023-04-18T15:40:18.820Z,3.80
2023-04-18T15:42:46.096Z,4.00
2023-04-18T15:45:13.265Z,4.43
2023-04-18T15:47:41.301Z,4.43
2023-04-18T15:50:09.189Z,4.50
2023-04-18T15:52:36.704Z,4.57
2023-04-18T15:55:04.811Z,4.70
2023-04-18T15:57:31.916Z,4.60
2023-04-18T15:59:59.825Z,5.40
2023-04-18T16:02:27.086Z,4.07
2023-04-18T16:04:53.999Z,4.13
2023-04-18T16:07:21.087Z,3.95
2023-04-18T16:09:47.888Z,4.22
2023-04-18T16:12:14.704Z,4.47
2023-04-18T16:14:41.544Z,4.82
2023-04-18T16:17:08.586Z,4.20
2023-04-18T16:19:38.365Z,4.03
2023-04-18T16:22:07.254Z,4.40
2023-04-18T16:24:34.752Z,4.00
2023-04-18T16:27:01.672Z,4.07
2023-04-18T16:29:28.414Z,3.75
2023-04-18T16:31:55.221Z,4.07
2023-04-18T16:34:22.007Z,3.97
2023-04-18T16:36:51.005Z,4.07
2023-04-18T16:39:19.169Z,4.28
2023-04-18T16:41:45.970Z,4.75
2023-04-18T16:44:13.144Z,5.05
2023-04-18T16:46:40.204Z,3.78
2023-04-18T16:49:07.080Z,3.90
2023-04-18T16:51:36.219Z,4.05
2023-04-18T16:54:03.853Z,4.68
2023-04-18T16:56:30.678Z,4.32
2023-04-18T16:58:58.576Z,3.80
2023-04-18T17:01:25.583Z,3.83
2023-04-18T17:03:52.561Z,5.00
2023-04-18T17:06:19.443Z,3.78
2023-04-18T17:08:46.221Z,3.97
2023-04-18T17:11:13.041Z,3.60
2023-04-18T17:13:39.799Z,3.90
2023-04-18T17:16:07.631Z,4.03
2023-04-18T17:18:34.431Z,3.50
2023-04-18T17:21:01.304Z,3.65
2023-04-18T17:23:28.152Z,4.80
2023-04-18T17:25:54.931Z,4.05
2023-04-18T17:28:23.738Z,4.13
2023-04-18T17:30:50.717Z,3.67
2023-04-18T17:33:17.534Z,3.50
2023-04-18T17:35:44.403Z,3.05
2023-04-18T17:38:13.475Z,3.40
2023-04-18T17:40:40.398Z,3.20
2023-04-18T17:43:07.389Z,3.63
2023-04-18T17:45:34.235Z,3.25
2023-04-18T17:48:03.153Z,3.53
2023-04-18T17:50:30.093Z,3.17
2023-04-18T17:52:57.496Z,3.53
2023-04-18T17:55:26.103Z,3.25
2023-04-18T17:57:52.956Z,3.88
2023-04-18T18:00:20.095Z,3.20
2023-04-18T18:02:47.249Z,3.30
2023-04-18T18:05:14.334Z,2.95
2023-04-18T18:07:45.892Z,3.40
2023-04-18T18:10:22.394Z,3.38
2023-04-18T18:12:49.359Z,3.80
2023-04-18T18:15:16.291Z,3.03
2023-04-18T18:17:43.366Z,3.67
2023-04-18T18:20:12.912Z,3.20
2023-04-18T18:22:39.741Z,3.28
2023-04-18T18:25:07.503Z,2.90
2023-04-18T18:27:34.367Z,3.17
2023-04-18T18:30:01.458Z,2.65
2023-04-18T18:32:28.283Z,3.13
2023-04-18T18:34:55.421Z,3.15
2023-04-18T18:37:24.562Z,3.45
2023-04-18T18:39:51.462Z,2.50
2023-04-18T18:42:18.272Z,2.85
2023-04-18T18:44:45.363Z,3.60
2023-04-18T18:47:12.261Z,3.65
2023-04-18T18:49:40.766Z,2.90
2023-04-18T18:52:07.690Z,3.35
2023-04-18T18:54:34.655Z,3.40
2023-04-18T18:57:04.386Z,2.85
2023-04-18T18:59:31.392Z,3.00
2023-04-18T19:01:58.318Z,3.75
2023-04-18T19:04:26.025Z,3.35
2023-04-18T19:06:53.614Z,3.22
2023-04-18T19:09:20.429Z,3.78
2023-04-18T19:11:47.219Z,3.45
2023-04-18T19:14:14.078Z,3.78
2023-04-18T19:16:41.033Z,2.80
2023-04-18T19:19:08.336Z,3.70
2023-04-18T19:21:35.180Z,2.50
2023-04-18T19:24:01.943Z,2.22
2023-04-18T19:26:28.694Z,2.60
2023-04-18T19:28:55.802Z,2.35
2023-04-18T19:31:22.910Z,2.25
2023-04-18T19:33:50.139Z,2.03
2023-04-18T19:36:17.320Z,2.28
2023-04-18T19:38:44.196Z,2.33
2023-04-18T19:41:11.123Z,2.88
2023-04-18T19:43:38.418Z,2.20
2023-04-18T19:46:05.485Z,2.30
2023-04-18T19:48:32.333Z,2.45
2023-04-18T19:50:59.137Z,2.30
2023-04-18T19:53:26.037Z,2.22
2023-04-18T19:55:54.911Z,2.25
2023-04-18T19:58:39.795Z,1.90
2023-04-18T20:01:07.615Z,2.20
2023-04-18T20:03:34.888Z,2.35
2023-04-18T20:06:01.835Z,2.40
2023-04-18T20:08:29.293Z,2.35
2023-04-18T20:10:56.588Z,2.50
2023-04-18T20:13:23.550Z,2.38
2023-04-18T20:15:50.392Z,2.33
2023-04-18T20:18:17.316Z,2.55
2023-04-18T20:20:44.328Z,2.35
2023-04-18T20:23:11.394Z,2.45
2023-04-18T20:25:38.182Z,2.03
2023-04-18T20:28:05.357Z,2.47
2023-04-18T20:30:38.384Z,2.63
2023-04-18T20:33:05.526Z,2.10
2023-04-18T20:35:32.530Z,2.45
2023-04-18T20:38:00.344Z,2.58
2023-04-18T20:40:28.116Z,2.20
2023-04-18T20:42:57.874Z,2.80
2023-04-18T20:45:25.230Z,2.83
2023-04-18T20:47:52.095Z,3.10
2023-04-18T20:50:20.431Z,2.03
2023-04-18T20:52:47.722Z,2.35
2023-04-18T20:55:16.912Z,2.88
2023-04-18T20:57:43.895Z,2.65
2023-04-18T21:00:13.892Z,2.58
2023-04-18T21:02:41.656Z,2.78
2023-04-18T21:05:08.901Z,2.33
2023-04-18T21:07:36.280Z,2.67
2023-04-18T21:10:06.648Z,2.13
2023-04-18T21:12:33.393Z,2.20
2023-04-18T21:15:00.452Z,2.58
2023-04-18T21:17:27.229Z,2.38
2023-04-18T21:19:55.746Z,2.35
2023-04-18T21:22:22.472Z,2.15
2023-04-18T21:24:49.232Z,2.30
2023-04-18T21:27:16.296Z,2.53
2023-04-18T21:29:43.107Z,2.13
2023-04-18T21:32:09.920Z,2.30
2023-04-18T21:34:36.796Z,1.90
2023-04-18T21:37:03.976Z,1.95
2023-04-18T21:39:31.057Z,2.17
2023-04-18T21:41:57.935Z,2.70
2023-04-18T21:44:24.747Z,1.90
2023-04-18T21:46:51.557Z,2.10
2023-04-18T21:49:18.398Z,2.58
2023-04-18T21:51:45.383Z,2.45
2023-04-18T21:54:12.223Z,2.28
2023-04-18T21:56:39.125Z,1.95
2023-04-18T21:59:05.842Z,2.13
2023-04-18T22:01:34.397Z,2.03
2023-04-18T22:04:02.055Z,2.25
2023-04-18T22:06:29.369Z,2.13
2023-04-18T22:08:56.064Z,1.80
2023-04-18T22:11:23.726Z,1.95
2023-04-18T22:13:54.125Z,1.85
2023-04-18T22:16:24.460Z,1.98
2023-04-18T22:18:51.443Z,2.28
2023-04-18T22:21:18.207Z,2.25
2023-04-18T22:23:44.870Z,2.28
2023-04-18T22:26:11.574Z,1.60
2023-04-18T22:28:38.339Z,1.40
2023-04-18T22:31:05.419Z,2.28
2023-04-18T22:33:32.153Z,2.40
2023-04-18T22:35:59.130Z,2.33
2023-04-18T22:38:25.877Z,2.50
2023-04-18T22:40:52.705Z,2.00
2023-04-18T22:43:22.947Z,1.75
2023-04-18T22:45:50.122Z,2.10
2023-04-18T22:48:17.197Z,1.73
2023-04-18T22:50:44.070Z,1.80
2023-04-18T22:53:11.194Z,1.80
2023-04-18T22:55:42.352Z,1.90
2023-04-18T22:58:10.632Z,1.90
2023-04-18T23:00:37.849Z,1.88
2023-04-18T23:03:04.794Z,1.65
2023-04-18T23:05:31.765Z,1.42
2023-04-18T23:08:00.356Z,2.08
2023-04-18T23:10:27.917Z,2.05
2023-04-18T23:12:54.678Z,1.77
2023-04-18T23:15:22.796Z,2.15
2023-04-18T23:17:55.169Z,1.67
2023-04-18T23:20:23.759Z,2.15
2023-04-18T23:22:51.739Z,1.90
2023-04-18T23:25:19.760Z,1.60
2023-04-18T23:27:46.951Z,1.70
2023-04-18T23:30:13.693Z,1.42
2023-04-18T23:32:40.413Z,1.65
2023-04-18T23:35:07.381Z,1.80
2023-04-18T23:37:34.255Z,2.00
2023-04-18T23:40:01.052Z,1.90
2023-04-18T23:42:27.839Z,2.00
2023-04-18T23:44:54.659Z,2.08
2023-04-18T23:47:21.994Z,2.28
2023-04-18T23:49:48.767Z,2.13
2023-04-18T23:52:15.573Z,2.45
2023-04-18T23:54:42.530Z,1.83
2023-04-18T23:57:09.230Z,1.70
2023-04-18T23:59:36.101Z,1.88
